sensor_id;sensor_type;location;lat;lon;timestamp;P1;durP1;ratioP1;P2;durP2;ratioP2
52744;SDS011;38637;49.984;20.426;2023-04-12T00:02:06;3.00;;;1.80;;
52744;SDS011;38637;49.984;20.426;2023-04-12T00:04:31;3.27;;;2.13;;
52744;SDS011;38637;49.984;20.426;2023-04-12T00:06:58;3.00;;;2.40;;
52744;SDS011;38637;49.984;20.426;2023-04-12T00:09:25;2.70;;;2.47;;
52744;SDS011;38637;49.984;20.426;2023-04-12T00:11:54;3.90;;;2.88;;
52744;SDS011;38637;49.984;20.426;2023-04-12T00:14:21;4.18;;;3.30;;
52744;SDS011;38637;49.984;20.426;2023-04-12T00:16:46;4.77;;;3.70;;
52744;SDS011;38637;49.984;20.426;2023-04-12T00:19:11;3.60;;;2.83;;
52744;SDS011;38637;49.984;20.426;2023-04-12T00:21:36;3.80;;;3.20;;
52744;SDS011;38637;49.984;20.426;2023-04-12T00:24:02;4.67;;;3.87;;
52744;SDS011;38637;49.984;20.426;2023-04-12T00:26:27;5.53;;;3.50;;
52744;SDS011;38637;49.984;20.426;2023-04-12T00:28:53;6.37;;;3.83;;
52744;SDS011;38637;49.984;20.426;2023-04-12T00:31:18;7.53;;;4.77;;
52744;SDS011;38637;49.984;20.426;2023-04-12T00:33:43;10.37;;;7.03;;
52744;SDS011;38637;49.984;20.426;2023-04-12T00:36:09;8.97;;;6.37;;
52744;SDS011;38637;49.984;20.426;2023-04-12T00:38:34;8.93;;;5.93;;
52744;SDS011;38637;49.984;20.426;2023-04-12T00:41:00;6.80;;;4.57;;
52744;SDS011;38637;49.984;20.426;2023-04-12T00:43:25;4.87;;;4.33;;
52744;SDS011;38637;49.984;20.426;2023-04-12T00:45:51;5.00;;;4.17;;
52744;SDS011;38637;49.984;20.426;2023-04-12T00:48:18;6.35;;;4.60;;
52744;SDS011;38637;49.984;20.426;2023-04-12T00:50:44;6.03;;;4.23;;
52744;SDS011;38637;49.984;20.426;2023-04-12T00:53:10;5.25;;;4.22;;
52744;SDS011;38637;49.984;20.426;2023-04-12T00:55:41;5.05;;;3.70;;
52744;SDS011;38637;49.984;20.426;2023-04-12T00:58:08;5.82;;;3.92;;
52744;SDS011;38637;49.984;20.426;2023-04-12T01:00:33;6.33;;;5.00;;
52744;SDS011;38637;49.984;20.426;2023-04-12T01:02:59;7.47;;;5.80;;
52744;SDS011;38637;49.984;20.426;2023-04-12T01:05:26;9.07;;;6.15;;
52744;SDS011;38637;49.984;20.426;2023-04-12T01:10:56;10.45;;;8.20;;
52744;SDS011;38637;49.984;20.426;2023-04-12T01:16:30;10.73;;;8.00;;
52744;SDS011;38637;49.984;20.426;2023-04-12T01:22:09;10.30;;;8.35;;
52744;SDS011;38637;49.984;20.426;2023-04-12T01:30:11;9.98;;;8.23;;
52744;SDS011;38637;49.984;20.426;2023-04-12T01:32:39;11.00;;;8.60;;
52744;SDS011;38637;49.984;20.426;2023-04-12T01:35:09;13.82;;;9.40;;
52744;SDS011;38637;49.984;20.426;2023-04-12T01:37:35;10.88;;;8.82;;
52744;SDS011;38637;49.984;20.426;2023-04-12T01:40:01;12.50;;;9.17;;
52744;SDS011;38637;49.984;20.426;2023-04-12T01:42:29;12.38;;;8.38;;
52744;SDS011;38637;49.984;20.426;2023-04-12T01:44:55;11.40;;;8.93;;
52744;SDS011;38637;49.984;20.426;2023-04-12T01:47:21;13.18;;;9.50;;
52744;SDS011;38637;49.984;20.426;2023-04-12T01:50:30;14.23;;;9.63;;
52744;SDS011;38637;49.984;20.426;2023-04-12T01:52:48;15.40;;;10.27;;
52744;SDS011;38637;49.984;20.426;2023-04-12T01:55:21;14.18;;;9.73;;
52744;SDS011;38637;49.984;20.426;2023-04-12T01:57:48;12.43;;;9.40;;
52744;SDS011;38637;49.984;20.426;2023-04-12T02:00:15;12.27;;;10.43;;
52744;SDS011;38637;49.984;20.426;2023-04-12T02:02:42;11.75;;;9.18;;
52744;SDS011;38637;49.984;20.426;2023-04-12T02:05:08;11.75;;;7.80;;
52744;SDS011;38637;49.984;20.426;2023-04-12T02:07:35;10.07;;;7.80;;
52744;SDS011;38637;49.984;20.426;2023-04-12T02:10:01;9.30;;;7.50;;
52744;SDS011;38637;49.984;20.426;2023-04-12T02:12:26;8.90;;;6.83;;
52744;SDS011;38637;49.984;20.426;2023-04-12T02:14:52;7.73;;;6.23;;
52744;SDS011;38637;49.984;20.426;2023-04-12T02:17:17;10.53;;;7.63;;
52744;SDS011;38637;49.984;20.426;2023-04-12T02:19:43;7.78;;;6.55;;
52744;SDS011;38637;49.984;20.426;2023-04-12T02:22:09;7.60;;;6.53;;
52744;SDS011;38637;49.984;20.426;2023-04-12T02:24:34;11.37;;;8.37;;
52744;SDS011;38637;49.984;20.426;2023-04-12T02:27:00;13.60;;;8.30;;
52744;SDS011;38637;49.984;20.426;2023-04-12T02:29:25;9.80;;;7.60;;
52744;SDS011;38637;49.984;20.426;2023-04-12T02:31:51;10.40;;;9.30;;
52744;SDS011;38637;49.984;20.426;2023-04-12T02:34:16;15.87;;;10.70;;
52744;SDS011;38637;49.984;20.426;2023-04-12T02:36:45;15.03;;;12.60;;
52744;SDS011;38637;49.984;20.426;2023-04-12T02:39:13;14.63;;;13.02;;
52744;SDS011;38637;49.984;20.426;2023-04-12T02:41:42;16.52;;;14.55;;
52744;SDS011;38637;49.984;20.426;2023-04-12T02:44:08;24.00;;;17.10;;
52744;SDS011;38637;49.984;20.426;2023-04-12T02:46:33;20.13;;;17.43;;
52744;SDS011;38637;49.984;20.426;2023-04-12T02:48:58;24.53;;;19.77;;
52744;SDS011;38637;49.984;20.426;2023-04-12T02:51:24;21.97;;;18.33;;
52744;SDS011;38637;49.984;20.426;2023-04-12T02:53:50;23.17;;;18.20;;
52744;SDS011;38637;49.984;20.426;2023-04-12T02:56:15;23.70;;;19.67;;
52744;SDS011;38637;49.984;20.426;2023-04-12T02:58:43;23.55;;;18.73;;
52744;SDS011;38637;49.984;20.426;2023-04-12T03:01:08;25.87;;;18.23;;
52744;SDS011;38637;49.984;20.426;2023-04-12T03:03:37;21.52;;;18.52;;
52744;SDS011;38637;49.984;20.426;2023-04-12T03:06:03;25.52;;;19.40;;
52744;SDS011;38637;49.984;20.426;2023-04-12T03:08:28;23.37;;;18.83;;
52744;SDS011;38637;49.984;20.426;2023-04-12T03:10:54;25.50;;;18.90;;
52744;SDS011;38637;49.984;20.426;2023-04-12T03:13:20;25.10;;;18.00;;
52744;SDS011;38637;49.984;20.426;2023-04-12T03:15:45;25.67;;;17.60;;
52744;SDS011;38637;49.984;20.426;2023-04-12T03:18:11;22.30;;;18.83;;
52744;SDS011;38637;49.984;20.426;2023-04-12T03:20:37;22.60;;;20.17;;
52744;SDS011;38637;49.984;20.426;2023-04-12T03:23:07;25.08;;;19.13;;
52744;SDS011;38637;49.984;20.426;2023-04-12T03:25:33;25.80;;;19.90;;
52744;SDS011;38637;49.984;20.426;2023-04-12T03:27:58;22.40;;;18.37;;
52744;SDS011;38637;49.984;20.426;2023-04-12T03:30:23;28.63;;;20.77;;
52744;SDS011;38637;49.984;20.426;2023-04-12T03:32:49;22.87;;;20.03;;
52744;SDS011;38637;49.984;20.426;2023-04-12T03:35:14;25.20;;;19.57;;
52744;SDS011;38637;49.984;20.426;2023-04-12T03:37:40;23.93;;;18.27;;
52744;SDS011;38637;49.984;20.426;2023-04-12T03:40:06;22.25;;;18.70;;
52744;SDS011;38637;49.984;20.426;2023-04-12T03:42:33;26.27;;;20.85;;
52744;SDS011;38637;49.984;20.426;2023-04-12T03:44:58;28.67;;;19.83;;
52744;SDS011;38637;49.984;20.426;2023-04-12T03:47:23;24.00;;;20.50;;
52744;SDS011;38637;49.984;20.426;2023-04-12T03:49:49;26.07;;;19.53;;
52744;SDS011;38637;49.984;20.426;2023-04-12T03:52:14;23.10;;;18.67;;
52744;SDS011;38637;49.984;20.426;2023-04-12T03:54:40;22.43;;;19.13;;
52744;SDS011;38637;49.984;20.426;2023-04-12T03:57:05;21.83;;;17.43;;
52744;SDS011;38637;49.984;20.426;2023-04-12T03:59:31;21.70;;;18.07;;
52744;SDS011;38637;49.984;20.426;2023-04-12T04:01:57;20.33;;;17.10;;
52744;SDS011;38637;49.984;20.426;2023-04-12T04:04:25;22.02;;;17.92;;
52744;SDS011;38637;49.984;20.426;2023-04-12T04:06:50;20.53;;;16.87;;
52744;SDS011;38637;49.984;20.426;2023-04-12T04:09:16;21.70;;;16.67;;
52744;SDS011;38637;49.984;20.426;2023-04-12T04:11:42;20.67;;;17.23;;
52744;SDS011;38637;49.984;20.426;2023-04-12T04:14:07;19.73;;;16.20;;
52744;SDS011;38637;49.984;20.426;2023-04-12T04:16:33;18.93;;;15.57;;
52744;SDS011;38637;49.984;20.426;2023-04-12T04:18:58;18.33;;;15.70;;
52744;SDS011;38637;49.984;20.426;2023-04-12T04:21:24;15.83;;;13.90;;
52744;SDS011;38637;49.984;20.426;2023-04-12T04:23:50;16.92;;;14.00;;
52744;SDS011;38637;49.984;20.426;2023-04-12T04:26:16;13.80;;;12.23;;
52744;SDS011;38637;49.984;20.426;2023-04-12T04:28:42;15.87;;;12.20;;
52744;SDS011;38637;49.984;20.426;2023-04-12T04:31:09;14.52;;;11.93;;
52744;SDS011;38637;49.984;20.426;2023-04-12T04:33:35;16.08;;;12.70;;
52744;SDS011;38637;49.984;20.426;2023-04-12T04:36:01;15.02;;;12.90;;
52744;SDS011;38637;49.984;20.426;2023-04-12T04:38:31;14.73;;;12.05;;
52744;SDS011;38637;49.984;20.426;2023-04-12T04:40:57;14.65;;;11.88;;
52744;SDS011;38637;49.984;20.426;2023-04-12T04:43:26;10.70;;;9.57;;
52744;SDS011;38637;49.984;20.426;2023-04-12T04:45:54;12.15;;;9.07;;
52744;SDS011;38637;49.984;20.426;2023-04-12T04:48:20;10.02;;;8.20;;
52744;SDS011;38637;49.984;20.426;2023-04-12T04:50:46;11.20;;;8.30;;
52744;SDS011;38637;49.984;20.426;2023-04-12T04:53:12;9.73;;;8.07;;
52744;SDS011;38637;49.984;20.426;2023-04-12T04:55:37;10.37;;;7.77;;
52744;SDS011;38637;49.984;20.426;2023-04-12T04:58:03;9.60;;;8.63;;
52744;SDS011;38637;49.984;20.426;2023-04-12T05:00:30;14.63;;;11.57;;
52744;SDS011;38637;49.984;20.426;2023-04-12T05:02:55;13.00;;;11.20;;
52744;SDS011;38637;49.984;20.426;2023-04-12T05:05:20;16.43;;;12.43;;
52744;SDS011;38637;49.984;20.426;2023-04-12T05:07:47;18.30;;;13.63;;
52744;SDS011;38637;49.984;20.426;2023-04-12T05:10:12;20.30;;;14.63;;
52744;SDS011;38637;49.984;20.426;2023-04-12T05:12:38;18.53;;;14.47;;
52744;SDS011;38637;49.984;20.426;2023-04-12T05:15:03;17.77;;;15.27;;
52744;SDS011;38637;49.984;20.426;2023-04-12T05:17:29;18.87;;;15.80;;
52744;SDS011;38637;49.984;20.426;2023-04-12T05:19:55;18.35;;;16.08;;
52744;SDS011;38637;49.984;20.426;2023-04-12T05:22:21;20.47;;;16.37;;
52744;SDS011;38637;49.984;20.426;2023-04-12T05:24:47;20.93;;;16.00;;
52744;SDS011;38637;49.984;20.426;2023-04-12T05:27:13;21.73;;;17.60;;
52744;SDS011;38637;49.984;20.426;2023-04-12T05:29:40;20.10;;;16.55;;
52744;SDS011;38637;49.984;20.426;2023-04-12T05:32:06;23.63;;;18.80;;
52744;SDS011;38637;49.984;20.426;2023-04-12T05:34:31;19.87;;;16.63;;
52744;SDS011;38637;49.984;20.426;2023-04-12T05:36:57;20.37;;;18.13;;
52744;SDS011;38637;49.984;20.426;2023-04-12T05:39:23;22.10;;;16.23;;
52744;SDS011;38637;49.984;20.426;2023-04-12T05:41:49;19.03;;;15.33;;
52744;SDS011;38637;49.984;20.426;2023-04-12T05:44:15;19.27;;;15.13;;
52744;SDS011;38637;49.984;20.426;2023-04-12T05:46:40;17.07;;;15.17;;
52744;SDS011;38637;49.984;20.426;2023-04-12T05:49:06;18.73;;;15.80;;
52744;SDS011;38637;49.984;20.426;2023-04-12T05:51:31;19.37;;;15.00;;
52744;SDS011;38637;49.984;20.426;2023-04-12T05:53:57;18.83;;;14.60;;
52744;SDS011;38637;49.984;20.426;2023-04-12T05:56:22;15.63;;;13.37;;
52744;SDS011;38637;49.984;20.426;2023-04-12T05:58:47;17.57;;;14.57;;
52744;SDS011;38637;49.984;20.426;2023-04-12T06:01:13;18.60;;;15.00;;
52744;SDS011;38637;49.984;20.426;2023-04-12T06:03:40;20.27;;;17.08;;
52744;SDS011;38637;49.984;20.426;2023-04-12T06:06:07;21.95;;;18.30;;
52744;SDS011;38637;49.984;20.426;2023-04-12T06:08:32;27.60;;;22.73;;
52744;SDS011;38637;49.984;20.426;2023-04-12T06:10:58;17.57;;;15.57;;
52744;SDS011;38637;49.984;20.426;2023-04-12T06:13:23;18.53;;;14.37;;
52744;SDS011;38637;49.984;20.426;2023-04-12T06:15:48;24.33;;;16.13;;
52744;SDS011;38637;49.984;20.426;2023-04-12T06:18:14;14.87;;;13.30;;
52744;SDS011;38637;49.984;20.426;2023-04-12T06:20:39;17.97;;;16.00;;
52744;SDS011;38637;49.984;20.426;2023-04-12T06:23:05;17.63;;;15.03;;
52744;SDS011;38637;49.984;20.426;2023-04-12T06:25:31;19.70;;;12.93;;
52744;SDS011;38637;49.984;20.426;2023-04-12T06:27:57;16.98;;;14.10;;
52744;SDS011;38637;49.984;20.426;2023-04-12T06:30:22;16.17;;;13.63;;
52744;SDS011;38637;49.984;20.426;2023-04-12T06:32:48;15.43;;;13.53;;
52744;SDS011;38637;49.984;20.426;2023-04-12T06:35:13;18.53;;;13.43;;
52744;SDS011;38637;49.984;20.426;2023-04-12T06:37:39;13.37;;;11.97;;
52744;SDS011;38637;49.984;20.426;2023-04-12T06:40:04;17.67;;;13.63;;
52744;SDS011;38637;49.984;20.426;2023-04-12T06:42:30;16.25;;;14.23;;
52744;SDS011;38637;49.984;20.426;2023-04-12T06:44:56;15.93;;;14.07;;
52744;SDS011;38637;49.984;20.426;2023-04-12T06:47:21;15.03;;;13.17;;
52744;SDS011;38637;49.984;20.426;2023-04-12T06:49:49;14.93;;;13.40;;
52744;SDS011;38637;49.984;20.426;2023-04-12T06:52:16;16.05;;;13.85;;
52744;SDS011;38637;49.984;20.426;2023-04-12T06:54:42;17.27;;;11.63;;
52744;SDS011;38637;49.984;20.426;2023-04-12T06:57:10;15.00;;;12.63;;
52744;SDS011;38637;49.984;20.426;2023-04-12T06:59:36;18.48;;;13.02;;
52744;SDS011;38637;49.984;20.426;2023-04-12T07:02:01;14.77;;;13.20;;
52744;SDS011;38637;49.984;20.426;2023-04-12T07:04:26;15.07;;;12.50;;
52744;SDS011;38637;49.984;20.426;2023-04-12T07:06:52;16.23;;;12.17;;
52744;SDS011;38637;49.984;20.426;2023-04-12T07:09:17;14.13;;;11.43;;
52744;SDS011;38637;49.984;20.426;2023-04-12T07:11:43;16.00;;;11.00;;
52744;SDS011;38637;49.984;20.426;2023-04-12T07:14:08;14.70;;;11.70;;
52744;SDS011;38637;49.984;20.426;2023-04-12T07:16:34;15.30;;;11.33;;
52744;SDS011;38637;49.984;20.426;2023-04-12T07:18:59;15.17;;;11.97;;
52744;SDS011;38637;49.984;20.426;2023-04-12T07:21:24;16.83;;;10.90;;
52744;SDS011;38637;49.984;20.426;2023-04-12T07:23:51;16.98;;;12.68;;
52744;SDS011;38637;49.984;20.426;2023-04-12T07:26:17;19.57;;;12.30;;
52744;SDS011;38637;49.984;20.426;2023-04-12T07:28:45;12.68;;;10.82;;
52744;SDS011;38637;49.984;20.426;2023-04-12T07:31:11;12.40;;;10.93;;
52744;SDS011;38637;49.984;20.426;2023-04-12T07:33:36;15.30;;;11.63;;
52744;SDS011;38637;49.984;20.426;2023-04-12T07:36:02;15.20;;;11.03;;
52744;SDS011;38637;49.984;20.426;2023-04-12T07:38:28;11.95;;;10.23;;
52744;SDS011;38637;49.984;20.426;2023-04-12T07:40:54;13.20;;;10.80;;
52744;SDS011;38637;49.984;20.426;2023-04-12T07:43:20;21.17;;;11.45;;
52744;SDS011;38637;49.984;20.426;2023-04-12T07:45:45;19.10;;;12.03;;
52744;SDS011;38637;49.984;20.426;2023-04-12T07:48:11;14.37;;;11.93;;
52744;SDS011;38637;49.984;20.426;2023-04-12T07:50:36;17.23;;;11.60;;
52744;SDS011;38637;49.984;20.426;2023-04-12T07:55:47;13.15;;;11.23;;
52744;SDS011;38637;49.984;20.426;2023-04-12T07:58:14;14.80;;;12.52;;
52744;SDS011;38637;49.984;20.426;2023-04-12T08:00:40;15.52;;;12.43;;
52744;SDS011;38637;49.984;20.426;2023-04-12T08:03:06;13.83;;;11.60;;
52744;SDS011;38637;49.984;20.426;2023-04-12T08:05:31;16.80;;;12.17;;
52744;SDS011;38637;49.984;20.426;2023-04-12T08:07:56;14.60;;;11.90;;
52744;SDS011;38637;49.984;20.426;2023-04-12T08:10:22;13.60;;;10.97;;
52744;SDS011;38637;49.984;20.426;2023-04-12T08:12:47;13.60;;;11.27;;
52744;SDS011;38637;49.984;20.426;2023-04-12T08:15:12;15.60;;;11.10;;
52744;SDS011;38637;49.984;20.426;2023-04-12T08:17:38;13.93;;;10.10;;
52744;SDS011;38637;49.984;20.426;2023-04-12T08:20:04;12.13;;;9.73;;
52744;SDS011;38637;49.984;20.426;2023-04-12T08:22:29;15.05;;;11.23;;
52744;SDS011;38637;49.984;20.426;2023-04-12T08:24:55;14.57;;;11.17;;
52744;SDS011;38637;49.984;20.426;2023-04-12T08:27:21;17.80;;;11.93;;
52744;SDS011;38637;49.984;20.426;2023-04-12T08:29:46;14.83;;;11.93;;
52744;SDS011;38637;49.984;20.426;2023-04-12T08:32:11;16.07;;;12.20;;
52744;SDS011;38637;49.984;20.426;2023-04-12T08:34:37;12.77;;;10.83;;
52744;SDS011;38637;49.984;20.426;2023-04-12T08:37:03;14.53;;;12.53;;
52744;SDS011;38637;49.984;20.426;2023-04-12T08:39:29;17.33;;;13.30;;
52744;SDS011;38637;49.984;20.426;2023-04-12T08:41:55;17.67;;;12.77;;
52744;SDS011;38637;49.984;20.426;2023-04-12T08:44:26;14.77;;;12.13;;
52744;SDS011;38637;49.984;20.426;2023-04-12T08:47:04;17.15;;;13.55;;
52744;SDS011;38637;49.984;20.426;2023-04-12T08:49:31;18.42;;;12.68;;
52744;SDS011;38637;49.984;20.426;2023-04-12T08:51:59;16.73;;;12.88;;
52744;SDS011;38637;49.984;20.426;2023-04-12T08:54:26;15.25;;;11.73;;
52744;SDS011;38637;49.984;20.426;2023-04-12T08:56:54;16.38;;;11.68;;
52744;SDS011;38637;49.984;20.426;2023-04-12T08:59:22;15.77;;;11.02;;
52744;SDS011;38637;49.984;20.426;2023-04-12T09:01:51;15.65;;;11.10;;
52744;SDS011;38637;49.984;20.426;2023-04-12T09:04:17;17.42;;;11.75;;
52744;SDS011;38637;49.984;20.426;2023-04-12T09:06:43;15.03;;;11.20;;
52744;SDS011;38637;49.984;20.426;2023-04-12T09:09:08;16.03;;;10.80;;
52744;SDS011;38637;49.984;20.426;2023-04-12T09:11:33;11.67;;;10.33;;
52744;SDS011;38637;49.984;20.426;2023-04-12T09:14:00;10.82;;;9.68;;
52744;SDS011;38637;49.984;20.426;2023-04-12T09:16:38;14.00;;;10.73;;
52744;SDS011;38637;49.984;20.426;2023-04-12T09:19:05;16.00;;;10.80;;
52744;SDS011;38637;49.984;20.426;2023-04-12T09:21:32;16.77;;;11.52;;
52744;SDS011;38637;49.984;20.426;2023-04-12T09:26:27;16.45;;;11.00;;
52744;SDS011;38637;49.984;20.426;2023-04-12T09:28:53;12.85;;;10.55;;
52744;SDS011;38637;49.984;20.426;2023-04-12T09:31:19;17.17;;;10.37;;
52744;SDS011;38637;49.984;20.426;2023-04-12T09:33:44;14.40;;;10.73;;
52744;SDS011;38637;49.984;20.426;2023-04-12T09:36:10;17.30;;;11.77;;
52744;SDS011;38637;49.984;20.426;2023-04-12T09:38:40;15.95;;;10.27;;
52744;SDS011;38637;49.984;20.426;2023-04-12T09:41:22;14.98;;;10.07;;
52744;SDS011;38637;49.984;20.426;2023-04-12T09:46:15;12.10;;;10.05;;
52744;SDS011;38637;49.984;20.426;2023-04-12T09:48:41;15.00;;;10.67;;
52744;SDS011;38637;49.984;20.426;2023-04-12T09:51:13;13.48;;;10.38;;
52744;SDS011;38637;49.984;20.426;2023-04-12T09:53:52;13.07;;;10.10;;
52744;SDS011;38637;49.984;20.426;2023-04-12T09:56:20;13.50;;;9.75;;
52744;SDS011;38637;49.984;20.426;2023-04-12T09:58:47;14.90;;;9.80;;
52744;SDS011;38637;49.984;20.426;2023-04-12T10:01:16;12.15;;;9.98;;
52744;SDS011;38637;49.984;20.426;2023-04-12T10:03:42;13.10;;;9.02;;
52744;SDS011;38637;49.984;20.426;2023-04-12T10:06:07;15.33;;;10.23;;
52744;SDS011;38637;49.984;20.426;2023-04-12T10:08:35;12.68;;;9.15;;
52744;SDS011;38637;49.984;20.426;2023-04-12T10:11:01;21.00;;;10.70;;
52744;SDS011;38637;49.984;20.426;2023-04-12T10:13:30;11.32;;;8.25;;
52744;SDS011;38637;49.984;20.426;2023-04-12T10:15:56;13.30;;;9.05;;
52744;SDS011;38637;49.984;20.426;2023-04-12T10:18:24;13.38;;;9.77;;
52744;SDS011;38637;49.984;20.426;2023-04-12T10:20:51;8.82;;;7.63;;
52744;SDS011;38637;49.984;20.426;2023-04-12T10:23:16;10.77;;;7.80;;
52744;SDS011;38637;49.984;20.426;2023-04-12T10:25:43;11.57;;;9.30;;
52744;SDS011;38637;49.984;20.426;2023-04-12T10:28:20;11.38;;;8.85;;
52744;SDS011;38637;49.984;20.426;2023-04-12T10:30:45;13.20;;;8.00;;
52744;SDS011;38637;49.984;20.426;2023-04-12T10:33:16;11.68;;;8.57;;
52744;SDS011;38637;49.984;20.426;2023-04-12T10:35:56;10.35;;;8.40;;
52744;SDS011;38637;49.984;20.426;2023-04-12T10:38:28;17.40;;;9.10;;
52744;SDS011;38637;49.984;20.426;2023-04-12T10:43:41;10.57;;;8.90;;
52744;SDS011;38637;49.984;20.426;2023-04-12T10:46:07;11.93;;;8.52;;
52744;SDS011;38637;49.984;20.426;2023-04-12T10:48:53;10.48;;;8.15;;
52744;SDS011;38637;49.984;20.426;2023-04-12T10:51:19;8.87;;;7.97;;
52744;SDS011;38637;49.984;20.426;2023-04-12T10:59:05;7.85;;;6.38;;
52744;SDS011;38637;49.984;20.426;2023-04-12T11:04:11;8.95;;;6.60;;
52744;SDS011;38637;49.984;20.426;2023-04-12T11:19:37;8.55;;;7.15;;
52744;SDS011;38637;49.984;20.426;2023-04-12T11:22:05;9.63;;;7.25;;
52744;SDS011;38637;49.984;20.426;2023-04-12T11:24:31;11.45;;;7.43;;
52744;SDS011;38637;49.984;20.426;2023-04-12T11:26:57;10.77;;;8.63;;
52744;SDS011;38637;49.984;20.426;2023-04-12T11:29:26;9.60;;;7.38;;
52744;SDS011;38637;49.984;20.426;2023-04-12T11:31:52;8.60;;;6.70;;
52744;SDS011;38637;49.984;20.426;2023-04-12T11:34:21;8.48;;;5.80;;
52744;SDS011;38637;49.984;20.426;2023-04-12T11:36:56;7.38;;;5.90;;
52744;SDS011;38637;49.984;20.426;2023-04-12T11:39:22;8.07;;;5.20;;
52744;SDS011;38637;49.984;20.426;2023-04-12T11:41:51;4.82;;;4.30;;
52744;SDS011;38637;49.984;20.426;2023-04-12T11:44:16;4.37;;;3.93;;
52744;SDS011;38637;49.984;20.426;2023-04-12T11:46:43;6.05;;;5.05;;
52744;SDS011;38637;49.984;20.426;2023-04-12T11:49:09;7.97;;;4.70;;
52744;SDS011;38637;49.984;20.426;2023-04-12T11:51:35;5.57;;;3.93;;
52744;SDS011;38637;49.984;20.426;2023-04-12T11:54:00;4.70;;;4.20;;
52744;SDS011;38637;49.984;20.426;2023-04-12T11:56:27;7.10;;;3.43;;
52744;SDS011;38637;49.984;20.426;2023-04-12T11:58:53;5.28;;;4.20;;
52744;SDS011;38637;49.984;20.426;2023-04-12T12:01:18;5.40;;;4.27;;
52744;SDS011;38637;49.984;20.426;2023-04-12T12:03:45;4.40;;;4.00;;
52744;SDS011;38637;49.984;20.426;2023-04-12T12:06:11;4.20;;;3.60;;
52744;SDS011;38637;49.984;20.426;2023-04-12T12:08:38;4.18;;;3.15;;
52744;SDS011;38637;49.984;20.426;2023-04-12T12:11:03;4.20;;;3.80;;
52744;SDS011;38637;49.984;20.426;2023-04-12T12:16:17;5.60;;;4.13;;
52744;SDS011;38637;49.984;20.426;2023-04-12T12:18:47;5.43;;;4.43;;
52744;SDS011;38637;49.984;20.426;2023-04-12T12:21:13;4.80;;;3.83;;
52744;SDS011;38637;49.984;20.426;2023-04-12T12:23:44;5.15;;;4.65;;
52744;SDS011;38637;49.984;20.426;2023-04-12T12:26:20;5.85;;;4.68;;
52744;SDS011;38637;49.984;20.426;2023-04-12T12:28:50;5.15;;;3.90;;
52744;SDS011;38637;49.984;20.426;2023-04-12T12:31:20;5.13;;;4.32;;
52744;SDS011;38637;49.984;20.426;2023-04-12T12:33:53;8.65;;;5.40;;
52744;SDS011;38637;49.984;20.426;2023-04-12T12:36:27;9.63;;;5.97;;
52744;SDS011;38637;49.984;20.426;2023-04-12T12:38:55;7.43;;;5.45;;
52744;SDS011;38637;49.984;20.426;2023-04-12T12:41:21;15.33;;;6.87;;
52744;SDS011;38637;49.984;20.426;2023-04-12T12:43:51;5.30;;;4.45;;
52744;SDS011;38637;49.984;20.426;2023-04-12T12:46:17;6.15;;;4.20;;
52744;SDS011;38637;49.984;20.426;2023-04-12T12:48:44;4.15;;;3.72;;
52744;SDS011;38637;49.984;20.426;2023-04-12T12:51:11;5.43;;;4.07;;
52744;SDS011;38637;49.984;20.426;2023-04-12T12:53:38;4.95;;;4.45;;
52744;SDS011;38637;49.984;20.426;2023-04-12T12:56:04;4.78;;;3.65;;
52744;SDS011;38637;49.984;20.426;2023-04-12T12:58:30;3.97;;;3.42;;
52744;SDS011;38637;49.984;20.426;2023-04-12T13:00:56;6.60;;;4.37;;
52744;SDS011;38637;49.984;20.426;2023-04-12T13:03:21;7.37;;;3.47;;
52744;SDS011;38637;49.984;20.426;2023-04-12T13:05:47;4.73;;;4.17;;
52744;SDS011;38637;49.984;20.426;2023-04-12T13:08:12;3.90;;;3.50;;
52744;SDS011;38637;49.984;20.426;2023-04-12T13:10:38;6.50;;;4.23;;
52744;SDS011;38637;49.984;20.426;2023-04-12T13:13:03;6.03;;;3.70;;
52744;SDS011;38637;49.984;20.426;2023-04-12T13:15:28;7.10;;;3.73;;
52744;SDS011;38637;49.984;20.426;2023-04-12T13:17:54;6.77;;;4.03;;
52744;SDS011;38637;49.984;20.426;2023-04-12T13:20:23;4.50;;;4.10;;
52744;SDS011;38637;49.984;20.426;2023-04-12T13:22:49;4.40;;;4.00;;
52744;SDS011;38637;49.984;20.426;2023-04-12T13:27:43;4.10;;;3.63;;
52744;SDS011;38637;49.984;20.426;2023-04-12T13:30:09;7.03;;;3.47;;
52744;SDS011;38637;49.984;20.426;2023-04-12T13:32:35;3.80;;;3.33;;
52744;SDS011;38637;49.984;20.426;2023-04-12T13:35:00;5.63;;;3.90;;
52744;SDS011;38637;49.984;20.426;2023-04-12T13:37:25;4.40;;;3.67;;
52744;SDS011;38637;49.984;20.426;2023-04-12T13:39:51;3.80;;;3.40;;
52744;SDS011;38637;49.984;20.426;2023-04-12T13:42:16;3.80;;;3.33;;
52744;SDS011;38637;49.984;20.426;2023-04-12T13:44:42;5.40;;;3.30;;
52744;SDS011;38637;49.984;20.426;2023-04-12T13:47:07;6.17;;;4.07;;
52744;SDS011;38637;49.984;20.426;2023-04-12T13:49:33;4.23;;;3.40;;
52744;SDS011;38637;49.984;20.426;2023-04-12T13:51:58;3.00;;;2.70;;
52744;SDS011;38637;49.984;20.426;2023-04-12T13:54:24;3.60;;;3.30;;
52744;SDS011;38637;49.984;20.426;2023-04-12T13:56:49;3.60;;;3.30;;
52744;SDS011;38637;49.984;20.426;2023-04-12T13:59:15;5.63;;;3.53;;
52744;SDS011;38637;49.984;20.426;2023-04-12T14:01:41;3.85;;;3.22;;
52744;SDS011;38637;49.984;20.426;2023-04-12T14:04:06;3.97;;;3.47;;
52744;SDS011;38637;49.984;20.426;2023-04-12T14:06:32;4.13;;;3.73;;
52744;SDS011;38637;49.984;20.426;2023-04-12T14:08:57;4.13;;;3.60;;
52744;SDS011;38637;49.984;20.426;2023-04-12T14:11:23;4.97;;;4.33;;
52744;SDS011;38637;49.984;20.426;2023-04-12T14:13:49;4.15;;;2.97;;
52744;SDS011;38637;49.984;20.426;2023-04-12T14:16:14;5.93;;;2.97;;
52744;SDS011;38637;49.984;20.426;2023-04-12T14:18:40;3.80;;;3.50;;
52744;SDS011;38637;49.984;20.426;2023-04-12T14:21:05;5.13;;;3.03;;
52744;SDS011;38637;49.984;20.426;2023-04-12T14:23:31;4.17;;;3.67;;
52744;SDS011;38637;49.984;20.426;2023-04-12T14:25:56;5.63;;;3.80;;
52744;SDS011;38637;49.984;20.426;2023-04-12T14:28:22;3.77;;;3.43;;
52744;SDS011;38637;49.984;20.426;2023-04-12T14:30:51;4.68;;;3.70;;
52744;SDS011;38637;49.984;20.426;2023-04-12T14:33:17;6.53;;;5.13;;
52744;SDS011;38637;49.984;20.426;2023-04-12T14:35:43;3.80;;;3.50;;
52744;SDS011;38637;49.984;20.426;2023-04-12T14:38:08;4.60;;;4.10;;
52744;SDS011;38637;49.984;20.426;2023-04-12T14:40:34;10.90;;;3.63;;
52744;SDS011;38637;49.984;20.426;2023-04-12T14:43:00;6.53;;;3.77;;
52744;SDS011;38637;49.984;20.426;2023-04-12T14:45:25;6.23;;;3.80;;
52744;SDS011;38637;49.984;20.426;2023-04-12T14:47:51;5.77;;;4.13;;
52744;SDS011;38637;49.984;20.426;2023-04-12T14:50:19;3.75;;;3.33;;
52744;SDS011;38637;49.984;20.426;2023-04-12T14:52:45;4.70;;;4.13;;
52744;SDS011;38637;49.984;20.426;2023-04-12T14:55:11;4.80;;;3.33;;
52744;SDS011;38637;49.984;20.426;2023-04-12T14:57:37;3.97;;;3.67;;
52744;SDS011;38637;49.984;20.426;2023-04-12T15:02:36;5.03;;;3.40;;
52744;SDS011;38637;49.984;20.426;2023-04-12T15:05:02;3.40;;;3.10;;
52744;SDS011;38637;49.984;20.426;2023-04-12T15:07:31;6.40;;;3.90;;
52744;SDS011;38637;49.984;20.426;2023-04-12T15:09:56;6.13;;;3.53;;
52744;SDS011;38637;49.984;20.426;2023-04-12T15:12:22;4.22;;;3.83;;